Time,TemperatureF,DewpointF,PressureIn,WindDirection,WindDirectionDegrees,WindSpeedMPH,WindSpeedGustMPH,Humidity,HourlyPrecipIn,Conditions,Clouds,dailyrainin,SolarRadiationWatts/m^2,SoftwareType,DateUTC
2013-09-10 00:04:00,67.0,63.0,-100.00,SSE,155,2.0,7.0,87,0.00,,,0.00,0.000000,,2013-09-10 04:04:00,
2013-09-10 00:43:00,67.0,63.0,-100.00,SSE,154,3.0,7.0,86,0.00,,,0.00,0.000000,,2013-09-10 04:43:00,
2013-09-10 00:53:00,67.0,63.0,-100.00,SSE,154,3.0,7.0,86,0.00,,,0.00,0.000000,,2013-09-10 04:53:00,
2013-09-10 01:03:00,67.0,63.0,-100.00,SSE,154,3.0,7.0,86,0.00,,,0.00,0.000000,,2013-09-10 05:03:00,
2013-09-10 01:43:00,66.0,61.0,-100.00,SSE,162,3.0,8.0,85,0.00,,,0.00,0.000000,,2013-09-10 05:43:00,
2013-09-10 01:53:00,66.0,61.0,-100.00,SSE,162,3.0,8.0,85,0.00,,,0.00,0.000000,,2013-09-10 05:53:00,
2013-09-10 02:03:00,66.0,61.0,-100.00,SSE,162,3.0,8.0,85,0.00,,,0.00,0.000000,,2013-09-10 06:03:00,
2013-09-10 02:43:00,66.0,62.0,-100.00,SSE,154,3.0,7.0,86,0.00,,,0.00,0.000000,,2013-09-10 06:43:00,
2013-09-10 02:52:00,66.0,62.0,-100.00,SSE,154,3.0,7.0,86,0.00,,,0.00,0.000000,,2013-09-10 06:52:00,
2013-09-10 03:01:00,66.0,62.0,-100.00,SSE,154,3.0,7.0,86,0.00,,,0.00,0.000000,,2013-09-10 07:01:00,
2013-09-10 03:42:00,66.0,60.0,-100.00,SE,145,3.0,6.0,82,0.00,,,0.00,0.000000,,2013-09-10 07:42:00,
2013-09-10 03:52:00,66.0,60.0,-100.00,SE,145,3.0,6.0,82,0.00,,,0.00,0.000000,,2013-09-10 07:52:00,
2013-09-10 04:02:00,66.0,60.0,-100.00,SE,145,3.0,6.0,82,0.00,,,0.00,0.000000,,2013-09-10 08:02:00,
2013-09-10 04:42:00,65.0,59.0,-100.00,SSE,156,3.0,7.0,82,0.00,,,0.00,0.000000,,2013-09-10 08:42:00,
2013-09-10 04:52:00,65.0,59.0,-100.00,SSE,156,3.0,7.0,82,0.00,,,0.00,0.000000,,2013-09-10 08:52:00,
2013-09-10 05:02:00,65.0,59.0,-100.00,SSE,156,3.0,7.0,82,0.00,,,0.00,0.000000,,2013-09-10 09:02:00,
2013-09-10 05:43:00,65.0,61.0,-100.00,NNE,20,1.0,6.0,86,0.00,,,0.00,0.000000,,2013-09-10 09:43:00,
2013-09-10 05:54:00,65.0,61.0,-100.00,NNE,20,1.0,6.0,86,0.00,,,0.00,0.000000,,2013-09-10 09:54:00,
2013-09-10 06:03:00,65.0,61.0,-100.00,NNE,20,1.0,6.0,86,0.00,,,0.00,0.000000,,2013-09-10 10:03:00,
2013-09-10 06:43:00,63.0,59.0,-100.00,ENE,68,2.0,4.0,88,0.00,,,0.00,0.000000,,2013-09-10 10:43:00,
2013-09-10 06:53:00,63.0,59.0,-100.00,ENE,68,2.0,4.0,88,0.00,,,0.00,0.000000,,2013-09-10 10:53:00,
2013-09-10 07:03:00,63.0,59.0,-100.00,ENE,68,2.0,4.0,88,0.00,,,0.00,0.000000,,2013-09-10 11:03:00,
2013-09-10 10:52:00,74.0,66.0,-100.00,SSE,164,3.0,5.0,76,-99.99,,,0.00,455.000000,,2013-09-10 14:52:00,
2013-09-10 11:02:00,74.0,66.0,-100.00,SSE,164,3.0,5.0,76,-99.99,,,0.00,455.000000,,2013-09-10 15:02:00,
2013-09-10 11:43:00,76.0,66.0,-100.00,SSE,151,4.0,9.0,71,0.00,,,0.00,702.000000,,2013-09-10 15:43:00,
2013-09-10 11:54:00,76.0,66.0,-100.00,SSE,151,4.0,9.0,71,0.00,,,0.00,702.000000,,2013-09-10 15:54:00,
2013-09-10 12:03:00,76.0,66.0,-100.00,SSE,151,4.0,9.0,71,0.00,,,0.00,702.000000,,2013-09-10 16:03:00,
2013-09-10 12:43:00,79.0,66.0,-100.00,SSE,161,4.0,7.0,64,0.00,,,0.00,866.000000,,2013-09-10 16:43:00,
2013-09-10 12:53:00,79.0,66.0,-100.00,SSE,161,4.0,7.0,64,0.00,,,0.00,866.000000,,2013-09-10 16:53:00,
2013-09-10 13:03:00,79.0,66.0,-100.00,SSE,161,4.0,7.0,64,0.00,,,0.00,866.000000,,2013-09-10 17:03:00,
2013-09-10 13:43:00,79.0,66.0,-100.00,SSW,193,4.0,8.0,64,0.00,,,0.00,849.000000,,2013-09-10 17:43:00,
2013-09-10 13:53:00,79.0,66.0,-100.00,SSW,193,4.0,8.0,64,0.00,,,0.00,849.000000,,2013-09-10 17:53:00,
2013-09-10 14:02:00,79.0,66.0,-100.00,SSW,193,4.0,8.0,64,0.00,,,0.00,849.000000,,2013-09-10 18:02:00,
2013-09-10 14:43:00,78.0,65.0,-100.00,SSE,166,4.0,9.0,64,0.00,,,0.00,802.000000,,2013-09-10 18:43:00,
2013-09-10 14:52:00,78.0,65.0,-100.00,SSE,166,4.0,9.0,64,0.00,,,0.00,802.000000,,2013-09-10 18:52:00,
2013-09-10 15:02:00,78.0,65.0,-100.00,SSE,166,4.0,9.0,64,0.00,,,0.00,802.000000,,2013-09-10 19:02:00,
2013-09-10 15:42:00,79.0,66.0,-100.00,SSE,163,5.0,11.0,64,0.00,,,-99.99,1064.000000,,2013-09-10 19:42:00,
2013-09-10 15:52:00,79.0,66.0,-100.00,SSE,163,5.0,11.0,64,0.00,,,-99.99,1064.000000,,2013-09-10 19:52:00,
2013-09-10 16:02:00,79.0,66.0,-100.00,SSE,163,5.0,11.0,64,0.00,,,-99.99,1064.000000,,2013-09-10 20:02:00,
2013-09-10 16:42:00,79.0,65.0,-100.00,SSE,166,5.0,11.0,62,0.00,,,0.00,951.000000,,2013-09-10 20:42:00,
2013-09-10 16:52:00,79.0,65.0,-100.00,SSE,166,5.0,11.0,62,0.00,,,0.00,951.000000,,2013-09-10 20:52:00,
2013-09-10 17:03:00,79.0,65.0,-100.00,SSE,166,5.0,11.0,62,0.00,,,0.00,951.000000,,2013-09-10 21:03:00,
2013-09-10 17:44:00,78.0,66.0,-100.00,SSE,156,3.0,9.0,67,0.00,,,0.00,632.000000,,2013-09-10 21:44:00,
2013-09-10 17:54:00,78.0,66.0,-100.00,SSE,156,3.0,9.0,67,0.00,,,0.00,632.000000,,2013-09-10 21:54:00,
2013-09-10 18:04:00,78.0,66.0,-100.00,SSE,156,3.0,9.0,67,0.00,,,0.00,632.000000,,2013-09-10 22:04:00,
2013-09-10 18:42:00,72.0,65.0,-100.00,SSE,160,5.0,8.0,78,0.00,,,0.00,140.000000,,2013-09-10 22:42:00,
2013-09-10 18:55:00,72.0,65.0,-100.00,SSE,160,5.0,8.0,78,0.00,,,0.00,140.000000,,2013-09-10 22:55:00,
2013-09-10 19:03:00,72.0,65.0,-100.00,SSE,160,5.0,8.0,78,0.00,,,0.00,140.000000,,2013-09-10 23:03:00,
2013-09-10 19:42:00,72.0,65.0,-100.00,SSE,165,4.0,8.0,79,0.00,,,-99.99,201.000000,,2013-09-10 23:42:00,
2013-09-10 19:53:00,72.0,65.0,-100.00,SSE,165,4.0,8.0,79,0.00,,,-99.99,201.000000,,2013-09-10 23:53:00,
2013-09-10 20:02:00,72.0,65.0,-100.00,SSE,165,4.0,8.0,79,0.00,,,-99.99,201.000000,,2013-09-11 00:02:00,
2013-09-10 20:42:00,69.0,65.0,-100.00,SSE,160,4.0,9.0,87,0.00,,,0.00,26.000000,,2013-09-11 00:42:00,
2013-09-10 20:52:00,69.0,65.0,-100.00,SSE,160,4.0,9.0,87,0.00,,,0.00,26.000000,,2013-09-11 00:52:00,
2013-09-10 21:02:00,69.0,65.0,-100.00,SSE,160,4.0,9.0,87,0.00,,,0.00,26.000000,,2013-09-11 01:02:00,
2013-09-10 21:42:00,68.0,64.0,-100.00,SSE,156,4.0,7.0,88,0.00,,,0.00,0.000000,,2013-09-11 01:42:00,
2013-09-10 21:53:00,68.0,64.0,-100.00,SSE,156,4.0,7.0,88,0.00,,,0.00,0.000000,,2013-09-11 01:53:00,
2013-09-10 22:02:00,68.0,64.0,-100.00,SSE,156,4.0,7.0,88,0.00,,,0.00,0.000000,,2013-09-11 02:02:00,
2013-09-10 22:43:00,66.0,63.0,-100.00,SSE,151,3.0,6.0,90,0.00,,,0.00,0.000000,,2013-09-11 02:43:00,
2013-09-10 22:52:00,66.0,63.0,-100.00,SSE,151,3.0,6.0,90,0.00,,,0.00,0.000000,,2013-09-11 02:52:00,
2013-09-10 23:02:00,66.0,63.0,-100.00,SSE,151,3.0,6.0,90,0.00,,,0.00,0.000000,,2013-09-11 03:02:00,
2013-09-10 23:45:00,66.0,65.0,-100.00,East,100,1.0,5.0,95,0.00,,,0.00,0.000000,,2013-09-11 03:45:00,
2013-09-10 23:55:00,66.0,65.0,-100.00,East,100,1.0,5.0,95,0.00,,,0.00,0.000000,,2013-09-11 03:55:00,